Pagrindinis puslapis
METAR-TAF:

METAR-TAF

Oro uostai :

Salala, Omanas

platuma: 17-02N, ilguma: 054-05E, Aukštis: 20 m

Dabartinis oras

Ataskaita buvo paskelbta 1 valandą ir 5 minutes, ne 04:50 UTC
Vėjas 1 kt nuo kintamojo kryptimis
Temperatūra 25°C
Drėgmė 65%
Slėgis 1014 hPa
Matomumas 10 km arba daugiau
Išsisklaidę debesys ne aukštis 2500 ft

METAR: OOSA 200450Z VRB01KT 9999 SCT025 25/18 Q1014 NOSIG

Laikas: 09:55 (05:55 UTC)

Prognozė

Ataskaita buvo paskelbta 6 valandos ir 55 minutes, ne 23:00 UTC
Prognozė galioja nuo 20 metu 00 UTC su 21 metu 06 UTC
Vėjas 3 kt nuo kintamojo kryptimis
Matomumas 10 km arba daugiau
Su prošvaistėmis ne aukštis 3000 ft
Tapsmas
nuo 20 metu 06 UTC su 20 metu 08 UTC
Vėjas 10 kt iš Pietų
Mažai debesys ne aukštis 3000 ft
Tapsmas
nuo 20 metu 16 UTC su 20 metu 18 UTC
Vėjas 3 kt nuo kintamojo kryptimis
Su prošvaistėmis ne aukštis 3000 ft

TAF: OOSA 192300Z 2000/2106 VRB03KT 9999 BKN030 BECMG 2006/2008 19010KT FEW030 BECMG 2016/2018 VRB03KT BKN030

Orai ataskaitas ir orų prognozės (METAR, TAF).

turimą stotys yra geltonos ir raudonos taškus žemėlapyje.

Perkelti pele per norėdami pamatyti stoties vardą.

Tada spustelėkite, norėdami matyti oro stebėjimo ir prognozės.

Norėdami pakeisti žemėlapį: spustelėkite ant žalios mygtukų su juodo kryžiaus žemyn,; žalią mygtuką su brūkšneliu, jei norite nutolinti; arba žalių rodyklių gretimoms žemėlapius.


METAR-TAF: